Bitola, Macedonia
Current Conditions -  °F | °C
As of 6:50 AM on Monday 22 Dec 2014 (Local Time) from LGKZ Reporting Station
Clear Clear  
Wind Chill: 28°   Ceiling: Unl
Heat Index: 34°   Visibility: 6mi
Dew Point: 18°   Wind: 7mph
Humidity: 52%   Direction: 330°NNW
Pressure: 30.39"   Gusts: NA
Location:  41.04°N, 21.34°E
Report Text: LGKZ 220450Z 33006KT CAVOK 01/M08 Q1029
Loading
Personal Weather Stations






























Interactive Weather Map New forecast layout! Learn more

10-Day Weather Forecast

Advertisements
Track Severe Weather on mobile